createdAt,value
2017-03-17T00:00:23.749Z,0
2017-03-17T00:01:23.731Z,0
2017-03-17T00:02:24.035Z,0
2017-03-17T00:03:24.050Z,0
2017-03-17T00:04:24.004Z,0
2017-03-17T00:05:23.992Z,0
2017-03-17T00:06:23.661Z,0
2017-03-17T00:07:23.650Z,0
2017-03-17T00:08:23.952Z,0
2017-03-17T00:09:23.620Z,0
2017-03-17T00:10:23.609Z,0
2017-03-17T00:11:23.910Z,0
2017-03-17T00:12:23.902Z,0
2017-03-17T00:13:23.562Z,0
2017-03-17T00:14:23.550Z,0
2017-03-17T00:15:23.859Z,0
2017-03-17T00:16:23.845Z,0
2017-03-17T00:17:23.825Z,0
2017-03-17T00:18:23.497Z,0
2017-03-17T00:19:23.798Z,0
2017-03-17T00:20:23.786Z,0
2017-03-17T00:21:23.774Z,0
2017-03-17T00:22:23.759Z,0
2017-03-17T00:23:23.746Z,0
2017-03-17T00:24:23.422Z,0
2017-03-17T00:25:23.405Z,0
2017-03-17T00:26:23.390Z,0
2017-03-17T00:27:23.381Z,0
2017-03-17T00:28:23.678Z,0
2017-03-17T00:29:23.663Z,0
2017-03-17T00:30:23.656Z,0
2017-03-17T00:31:23.639Z,0
2017-03-17T00:32:23.311Z,0
2017-03-17T00:33:23.291Z,0
2017-03-17T00:34:23.592Z,0
2017-03-17T00:35:23.270Z,0
2017-03-17T00:36:23.570Z,0
2017-03-17T00:37:23.238Z,0
2017-03-17T00:38:23.544Z,0
2017-03-17T00:39:23.552Z,0
2017-03-17T00:40:22.884Z,0
2017-03-17T00:41:23.189Z,0
2017-03-17T00:42:23.485Z,0
2017-03-17T00:43:23.476Z,0
2017-03-17T00:44:23.461Z,0
2017-03-17T00:45:23.442Z,0
2017-03-17T00:46:23.430Z,0
2017-03-17T00:47:23.104Z,0
2017-03-17T00:48:23.114Z,0
2017-03-17T00:49:23.077Z,0
2017-03-17T00:50:23.063Z,0
2017-03-17T00:51:23.367Z,0
2017-03-17T00:52:23.352Z,0
2017-03-17T00:53:23.026Z,0
2017-03-17T00:54:23.005Z,0
2017-03-17T00:55:23.312Z,0
2017-03-17T00:56:23.301Z,0
2017-03-17T00:57:22.969Z,0
2017-03-17T00:58:23.275Z,0
2017-03-17T00:59:22.629Z,0
2017-03-17T01:00:23.257Z,0
2017-03-17T01:01:23.234Z,0
2017-03-17T01:02:23.220Z,0
2017-03-17T01:03:23.208Z,0
2017-03-17T01:04:23.191Z,0
2017-03-17T01:05:23.183Z,0
2017-03-17T01:06:23.168Z,0
2017-03-17T01:07:22.520Z,0
2017-03-17T01:08:23.134Z,0
2017-03-17T01:09:22.809Z,0
2017-03-17T01:10:23.110Z,0
2017-03-17T01:11:23.097Z,0
2017-03-17T01:12:23.083Z,0
2017-03-17T01:13:23.109Z,0
2017-03-17T01:14:23.064Z,0
2017-03-17T01:15:22.730Z,0
2017-03-17T01:16:23.031Z,0
2017-03-17T01:17:23.014Z,0
2017-03-17T01:18:23.005Z,0
2017-03-17T01:19:22.996Z,0
2017-03-17T01:20:22.662Z,0
2017-03-17T01:21:22.959Z,0
2017-03-17T01:22:22.947Z,0
2017-03-17T01:23:22.937Z,0
2017-03-17T01:24:22.293Z,0
2017-03-17T01:25:22.910Z,0
2017-03-17T01:26:22.898Z,0
2017-03-17T01:27:22.885Z,0
2017-03-17T01:28:22.870Z,0
2017-03-17T01:29:22.866Z,0
2017-03-17T01:30:22.524Z,0
2017-03-17T01:31:22.828Z,0
2017-03-17T01:32:22.815Z,0
2017-03-17T01:33:22.805Z,0
2017-03-17T01:34:22.786Z,0
2017-03-17T01:35:22.774Z,0
2017-03-17T01:36:22.444Z,0
2017-03-17T01:37:22.747Z,0
2017-03-17T01:38:22.741Z,0
2017-03-17T01:39:22.410Z,0
2017-03-17T01:40:22.393Z,0
2017-03-17T01:41:22.697Z,0
2017-03-17T01:42:22.681Z,0
2017-03-17T01:43:22.360Z,0
2017-03-17T01:44:22.654Z,0
2017-03-17T01:45:22.653Z,0
2017-03-17T01:46:22.633Z,0
2017-03-17T01:47:22.617Z,0
2017-03-17T01:48:22.608Z,0
2017-03-17T01:49:22.589Z,0
2017-03-17T01:50:22.579Z,0
2017-03-17T01:51:22.568Z,0
2017-03-17T01:52:22.557Z,0
2017-03-17T01:53:22.541Z,0
2017-03-17T01:54:22.218Z,0
2017-03-17T01:55:22.522Z,0
2017-03-17T01:56:22.536Z,0
2017-03-17T01:57:22.503Z,0
2017-03-17T01:58:22.493Z,0
2017-03-17T01:59:22.476Z,0
2017-03-17T02:00:22.462Z,0
2017-03-17T02:01:22.133Z,0
2017-03-17T02:02:22.433Z,0
2017-03-17T02:03:22.108Z,0
2017-03-17T02:04:22.412Z,0
2017-03-17T02:05:22.083Z,0
2017-03-17T02:06:22.389Z,0
2017-03-17T02:07:21.744Z,0
2017-03-17T02:08:22.361Z,0
2017-03-17T02:09:22.058Z,0
2017-03-17T02:10:22.021Z,0
2017-03-17T02:11:22.012Z,0
2017-03-17T02:12:22.315Z,0
2017-03-17T02:13:22.305Z,0
2017-03-17T02:14:21.977Z,0
2017-03-17T02:15:21.964Z,0
2017-03-17T02:16:22.268Z,0
2017-03-17T02:17:21.653Z,0
2017-03-17T02:18:21.928Z,0
2017-03-17T02:19:22.230Z,0
2017-03-17T02:20:21.906Z,0
2017-03-17T02:21:21.890Z,0
2017-03-17T02:22:22.194Z,0
2017-03-17T02:23:22.186Z,0
2017-03-17T02:24:24.204Z,0
2017-03-17T02:25:21.530Z,0
2017-03-17T02:26:22.156Z,0
2017-03-17T02:27:22.145Z,0
2017-03-17T02:28:22.126Z,0
2017-03-17T02:29:22.118Z,0
2017-03-17T02:30:21.792Z,0
2017-03-17T02:31:22.090Z,0
2017-03-17T02:32:21.448Z,0
2017-03-17T02:33:21.755Z,0
2017-03-17T02:34:22.055Z,0
2017-03-17T02:35:22.043Z,0
2017-03-17T02:36:22.035Z,0
2017-03-17T02:37:22.027Z,0
2017-03-17T02:38:22.021Z,0
2017-03-17T02:39:21.684Z,0
2017-03-17T02:40:21.989Z,0
2017-03-17T02:41:21.660Z,0
2017-03-17T02:42:21.963Z,0
2017-03-17T02:43:21.960Z,0
2017-03-17T02:44:21.947Z,0
2017-03-17T02:45:21.927Z,0
2017-03-17T02:46:21.605Z,0
2017-03-17T02:47:21.907Z,0
2017-03-17T02:48:21.580Z,0
2017-03-17T02:49:21.883Z,0
2017-03-17T02:50:21.873Z,0
2017-03-17T02:51:21.860Z,0
2017-03-17T02:52:21.850Z,0
2017-03-17T02:53:21.838Z,0
2017-03-17T02:54:21.828Z,0
2017-03-17T02:55:21.811Z,0
2017-03-17T02:56:21.807Z,0
2017-03-17T02:57:21.787Z,0
2017-03-17T02:58:21.787Z,0
2017-03-17T02:59:21.769Z,0
2017-03-17T03:00:21.124Z,0
2017-03-17T03:01:21.740Z,0
2017-03-17T03:02:21.735Z,0
2017-03-17T03:03:21.721Z,0
2017-03-17T03:04:21.713Z,0
2017-03-17T03:05:21.696Z,0
2017-03-17T03:06:21.371Z,0
2017-03-17T03:07:21.360Z,0
2017-03-17T03:08:21.664Z,0
2017-03-17T03:09:21.333Z,0
2017-03-17T03:10:21.641Z,0
2017-03-17T03:11:21.628Z,0
2017-03-17T03:12:21.617Z,0
2017-03-17T03:13:21.617Z,0
2017-03-17T03:14:21.289Z,0
2017-03-17T03:15:21.588Z,0
2017-03-17T03:16:21.572Z,0
2017-03-17T03:17:21.249Z,0
2017-03-17T03:18:21.237Z,0
2017-03-17T03:19:21.232Z,0
2017-03-17T03:20:21.525Z,0
2017-03-17T03:21:21.517Z,0
2017-03-17T03:22:21.508Z,0
2017-03-17T03:23:21.499Z,0
2017-03-17T03:24:21.486Z,0
2017-03-17T03:25:21.159Z,0
2017-03-17T03:26:21.460Z,0
2017-03-17T03:27:21.478Z,0
2017-03-17T03:28:21.476Z,0
2017-03-17T03:29:21.437Z,0
2017-03-17T03:30:21.417Z,0
2017-03-17T03:31:21.404Z,0
2017-03-17T03:32:21.394Z,0
2017-03-17T03:33:21.390Z,0
2017-03-17T03:34:21.377Z,0
2017-03-17T03:35:21.360Z,0
2017-03-17T03:36:20.721Z,0
2017-03-17T03:37:20.708Z,0
2017-03-17T03:38:21.336Z,0
2017-03-17T03:39:21.323Z,0
2017-03-17T03:40:21.307Z,0
2017-03-17T03:41:21.295Z,0
2017-03-17T03:42:21.283Z,0
2017-03-17T03:43:21.273Z,0
2017-03-17T03:44:20.949Z,0
2017-03-17T03:45:21.251Z,0
2017-03-17T03:46:21.235Z,0
2017-03-17T03:47:21.226Z,0
2017-03-17T03:48:21.222Z,0
2017-03-17T03:49:21.201Z,0
2017-03-17T03:50:20.877Z,0
2017-03-17T03:51:21.178Z,0
2017-03-17T03:52:21.168Z,0
2017-03-17T03:53:20.852Z,0
2017-03-17T03:54:21.158Z,0
2017-03-17T03:55:21.135Z,0
2017-03-17T03:56:20.812Z,0
2017-03-17T03:57:21.114Z,0
2017-03-17T03:58:21.108Z,0
2017-03-17T03:59:21.098Z,0
2017-03-17T04:00:21.081Z,0
2017-03-17T04:01:20.753Z,0
2017-03-17T04:02:21.063Z,0
2017-03-17T04:03:20.736Z,0
2017-03-17T04:04:21.042Z,0
2017-03-17T04:05:20.708Z,0
2017-03-17T04:06:21.018Z,0
2017-03-17T04:07:20.707Z,0
2017-03-17T04:08:21.000Z,0
2017-03-17T04:09:20.982Z,0
2017-03-17T04:10:20.968Z,0
2017-03-17T04:11:20.639Z,0
2017-03-17T04:12:20.953Z,0
2017-03-17T04:13:20.934Z,0
2017-03-17T04:14:20.933Z,0
2017-03-17T04:15:20.912Z,0
2017-03-17T04:16:20.911Z,0
2017-03-17T04:17:20.890Z,0
2017-03-17T04:18:20.878Z,0
2017-03-17T04:19:20.869Z,0
2017-03-17T04:20:20.859Z,0
2017-03-17T04:21:20.844Z,0
2017-03-17T04:22:20.839Z,0
2017-03-17T04:23:20.833Z,0
2017-03-17T04:24:20.821Z,0
2017-03-17T04:25:20.806Z,0
2017-03-17T04:26:20.792Z,0
2017-03-17T04:27:20.778Z,0
2017-03-17T04:28:20.763Z,0
2017-03-17T04:29:20.778Z,0
2017-03-17T04:30:20.748Z,0
2017-03-17T04:31:20.725Z,0
2017-03-17T04:32:20.407Z,0
2017-03-17T04:33:20.716Z,0
2017-03-17T04:34:20.703Z,0
2017-03-17T04:35:20.686Z,0
2017-03-17T04:36:20.671Z,0
2017-03-17T04:37:20.665Z,0
2017-03-17T04:38:20.665Z,0
2017-03-17T04:39:20.647Z,0
2017-03-17T04:40:19.683Z,0
2017-03-17T04:41:20.617Z,0
2017-03-17T04:42:20.602Z,0
2017-03-17T04:43:20.599Z,0
2017-03-17T04:44:20.584Z,0
2017-03-17T04:45:20.567Z,0
2017-03-17T04:46:20.562Z,0
2017-03-17T04:47:20.547Z,0
2017-03-17T04:48:20.535Z,0
2017-03-17T04:49:20.212Z,0
2017-03-17T04:50:20.510Z,4
2017-03-17T04:51:20.187Z,4
2017-03-17T04:52:20.195Z,0
2017-03-17T04:53:20.479Z,4
2017-03-17T04:54:20.466Z,4
2017-03-17T04:55:20.456Z,4
2017-03-17T04:56:20.438Z,4
2017-03-17T04:57:20.115Z,4
2017-03-17T04:58:20.415Z,8
2017-03-17T04:59:20.096Z,8
2017-03-17T05:00:20.400Z,12
2017-03-17T05:01:19.755Z,16
2017-03-17T05:02:20.374Z,16
2017-03-17T05:03:20.366Z,20
2017-03-17T05:04:20.357Z,24
2017-03-17T05:05:20.329Z,28
2017-03-17T05:06:20.007Z,32
2017-03-17T05:07:20.308Z,44
2017-03-17T05:08:20.295Z,48
2017-03-17T05:09:19.968Z,56
2017-03-17T05:10:20.280Z,64
2017-03-17T05:11:20.265Z,76
2017-03-17T05:12:20.258Z,84
2017-03-17T05:13:19.926Z,96
2017-03-17T05:14:20.234Z,108
2017-03-17T05:15:19.905Z,120
2017-03-17T05:16:20.207Z,136
2017-03-17T05:17:20.195Z,148
2017-03-17T05:18:20.209Z,164
2017-03-17T05:19:20.170Z,184
2017-03-17T05:20:19.840Z,200
2017-03-17T05:21:20.144Z,220
2017-03-17T05:22:19.818Z,240
2017-03-17T05:23:20.126Z,268
2017-03-17T05:24:20.118Z,292
2017-03-17T05:25:19.782Z,324
2017-03-17T05:26:19.459Z,352
2017-03-17T05:27:19.755Z,380
2017-03-17T05:28:19.749Z,412
2017-03-17T05:29:20.057Z,440
2017-03-17T05:30:19.721Z,472
2017-03-17T05:31:20.027Z,504
2017-03-17T05:32:20.013Z,544
2017-03-17T05:33:19.379Z,580
2017-03-17T05:34:20.006Z,616
2017-03-17T05:35:19.984Z,652
2017-03-17T05:36:19.970Z,688
2017-03-17T05:37:19.642Z,728
2017-03-17T05:38:19.631Z,768
2017-03-17T05:39:19.626Z,804
2017-03-17T05:40:19.606Z,844
2017-03-17T05:41:19.908Z,880
2017-03-17T05:42:19.896Z,920
2017-03-17T05:43:19.898Z,956
2017-03-17T05:44:19.877Z,992
2017-03-17T05:45:19.549Z,1032
2017-03-17T05:46:19.853Z,1072
2017-03-17T05:47:19.212Z,1104
2017-03-17T05:48:19.511Z,1136
2017-03-17T05:49:19.816Z,1172
2017-03-17T05:50:19.177Z,1204
2017-03-17T05:51:19.790Z,1236
2017-03-17T05:52:19.777Z,1268
2017-03-17T05:53:19.456Z,1300
2017-03-17T05:54:19.781Z,1340
2017-03-17T05:55:19.744Z,1376
2017-03-17T05:56:19.738Z,1420
2017-03-17T05:57:19.721Z,1472
2017-03-17T05:58:19.715Z,1508
2017-03-17T05:59:19.733Z,1552
2017-03-17T06:00:19.693Z,1612
2017-03-17T06:01:19.678Z,1664
2017-03-17T06:02:19.351Z,1720
2017-03-17T06:03:19.025Z,1792
2017-03-17T06:04:19.649Z,1824
2017-03-17T06:05:19.315Z,1832
2017-03-17T06:06:19.619Z,1864
2017-03-17T06:07:19.284Z,1880
2017-03-17T06:08:19.599Z,1872
2017-03-17T06:09:19.281Z,1892
2017-03-17T06:10:19.255Z,1908
2017-03-17T06:11:19.559Z,1900
2017-03-17T06:12:19.232Z,1860
2017-03-17T06:13:19.535Z,1920
2017-03-17T06:14:19.524Z,1948
2017-03-17T06:15:19.522Z,1964
2017-03-17T06:16:19.498Z,2004
2017-03-17T06:17:19.490Z,2044
2017-03-17T06:18:19.486Z,2076
2017-03-17T06:19:19.471Z,2116
2017-03-17T06:20:19.456Z,2168
2017-03-17T06:21:19.446Z,2212
2017-03-17T06:22:19.122Z,2208
2017-03-17T06:23:19.428Z,2132
2017-03-17T06:24:19.418Z,2164
2017-03-17T06:25:19.401Z,2084
2017-03-17T06:26:19.422Z,2024
2017-03-17T06:27:19.065Z,2008
2017-03-17T06:28:18.732Z,2040
2017-03-17T06:29:19.351Z,2096
2017-03-17T06:30:19.028Z,2232
2017-03-17T06:31:19.028Z,2272
2017-03-17T06:32:19.007Z,2276
2017-03-17T06:33:19.004Z,2300
2017-03-17T06:34:19.301Z,2352
2017-03-17T06:35:19.287Z,2408
2017-03-17T06:36:18.959Z,2556
2017-03-17T06:37:19.268Z,2700
2017-03-17T06:38:18.939Z,2700
2017-03-17T06:39:19.249Z,2672
2017-03-17T06:40:18.919Z,2680
2017-03-17T06:41:18.911Z,2680
2017-03-17T06:42:19.220Z,2664
2017-03-17T06:43:18.895Z,2660
2017-03-17T06:44:18.880Z,2660
2017-03-17T06:45:19.178Z,2672
2017-03-17T06:46:19.171Z,2680
2017-03-17T06:47:19.162Z,2716
2017-03-17T06:48:18.848Z,2732
2017-03-17T06:49:19.142Z,2724
2017-03-17T06:50:19.129Z,2728
2017-03-17T06:51:19.114Z,2784
2017-03-17T06:52:19.105Z,2828
2017-03-17T06:53:18.791Z,2844
2017-03-17T06:54:18.773Z,2816
2017-03-17T06:55:19.074Z,2928
2017-03-17T06:56:19.067Z,3020
2017-03-17T06:57:18.742Z,3164
2017-03-17T06:58:18.774Z,3264
2017-03-17T06:59:18.724Z,3312
2017-03-17T07:00:18.711Z,3296
2017-03-17T07:01:19.013Z,3264
2017-03-17T07:02:18.693Z,3188
2017-03-17T07:03:18.688Z,3332
2017-03-17T07:04:19.003Z,3340
2017-03-17T07:05:18.976Z,3316
2017-03-17T07:06:18.651Z,3308
2017-03-17T07:07:18.956Z,3300
2017-03-17T07:08:18.945Z,3288
2017-03-17T07:09:18.942Z,3316
2017-03-17T07:10:18.609Z,3348
2017-03-17T07:11:18.599Z,3448
2017-03-17T07:12:18.588Z,3568
2017-03-17T07:13:18.902Z,3640
2017-03-17T07:14:18.889Z,3720
2017-03-17T07:15:18.874Z,3776
2017-03-17T07:16:18.863Z,3756
2017-03-17T07:17:18.863Z,3816
2017-03-17T07:18:18.849Z,3808
2017-03-17T07:19:18.532Z,3748
2017-03-17T07:20:18.511Z,3780
2017-03-17T07:21:18.199Z,3828
2017-03-17T07:22:18.488Z,3792
2017-03-17T07:23:18.805Z,3784
2017-03-17T07:24:18.478Z,3908
2017-03-17T07:25:18.778Z,4036
2017-03-17T07:26:18.772Z,4088
2017-03-17T07:27:18.461Z,4204
2017-03-17T07:28:18.434Z,4336
2017-03-17T07:29:18.740Z,4412
2017-03-17T07:30:18.728Z,4528
2017-03-17T07:31:18.714Z,4696
2017-03-17T07:32:18.393Z,4780
2017-03-17T07:33:18.704Z,4872
2017-03-17T07:34:18.709Z,4912
2017-03-17T07:35:18.678Z,4968
2017-03-17T07:36:18.668Z,4912
2017-03-17T07:37:18.660Z,5128
2017-03-17T07:38:18.651Z,5376
2017-03-17T07:39:18.650Z,5508
2017-03-17T07:40:18.637Z,5496
2017-03-17T07:41:18.625Z,5672
2017-03-17T07:42:18.611Z,5996
2017-03-17T07:43:18.290Z,6068
2017-03-17T07:44:18.308Z,6196
2017-03-17T07:45:18.268Z,6236
2017-03-17T07:46:18.257Z,6108
2017-03-17T07:47:18.561Z,5744
2017-03-17T07:48:18.557Z,5772
2017-03-17T07:49:18.230Z,5916
2017-03-17T07:50:18.539Z,6268
2017-03-17T07:51:18.522Z,6432
2017-03-17T07:52:18.205Z,6572
2017-03-17T07:53:18.513Z,6700
2017-03-17T07:54:18.506Z,6812
2017-03-17T07:55:18.171Z,6916
2017-03-17T07:56:18.486Z,6856
2017-03-17T07:57:18.154Z,6860
2017-03-17T07:58:18.464Z,7088
2017-03-17T07:59:18.457Z,7200
2017-03-17T08:00:18.133Z,7548
2017-03-17T08:01:18.436Z,7912
2017-03-17T08:02:18.429Z,8200
2017-03-17T08:03:18.432Z,8628
2017-03-17T08:04:18.108Z,8964
2017-03-17T08:05:18.099Z,9140
2017-03-17T08:06:18.398Z,9460
2017-03-17T08:07:18.078Z,9440
2017-03-17T08:08:18.375Z,9936
2017-03-17T08:09:18.071Z,10176
2017-03-17T08:10:18.362Z,10028
2017-03-17T08:11:18.041Z,10120
2017-03-17T08:12:18.346Z,10444
2017-03-17T08:13:18.344Z,10532
2017-03-17T08:14:18.338Z,10616
2017-03-17T08:15:17.690Z,10704
2017-03-17T08:16:18.318Z,10844
2017-03-17T08:17:18.004Z,10968
2017-03-17T08:18:17.987Z,10740
2017-03-17T08:19:17.994Z,10740
2017-03-17T08:20:18.286Z,10600
2017-03-17T08:21:17.648Z,10616
2017-03-17T08:22:17.953Z,10428
2017-03-17T08:23:18.272Z,10588
2017-03-17T08:24:17.944Z,10600
2017-03-17T08:25:17.936Z,10300
2017-03-17T08:26:17.926Z,10096
2017-03-17T08:27:17.922Z,10004
2017-03-17T08:28:17.919Z,9804
2017-03-17T08:29:17.914Z,9500
2017-03-17T08:30:17.898Z,9184
2017-03-17T08:31:17.896Z,9016
2017-03-17T08:32:18.231Z,9124
2017-03-17T08:33:18.197Z,8292
2017-03-17T08:34:18.198Z,8128
2017-03-17T08:35:17.870Z,8116
2017-03-17T08:36:17.859Z,8532
2017-03-17T08:37:17.859Z,8588
2017-03-17T08:38:18.182Z,9208
2017-03-17T08:39:18.168Z,10036
2017-03-17T08:40:18.157Z,10924
2017-03-17T08:41:18.153Z,10592
2017-03-17T08:42:17.829Z,10192
2017-03-17T08:43:18.142Z,10000
2017-03-17T08:44:18.150Z,9932
2017-03-17T08:45:17.818Z,10296
2017-03-17T08:46:17.810Z,10108
2017-03-17T08:47:17.801Z,9944
2017-03-17T08:48:18.149Z,10464
2017-03-17T08:49:17.794Z,10556
2017-03-17T08:50:18.107Z,10460
2017-03-17T08:51:18.089Z,10948
2017-03-17T08:52:18.087Z,10336
2017-03-17T08:53:18.090Z,9232
2017-03-17T08:54:18.076Z,8784
2017-03-17T08:55:17.756Z,8792
2017-03-17T08:56:18.104Z,9124
2017-03-17T08:57:18.062Z,9880
2017-03-17T08:58:17.745Z,10392
2017-03-17T08:59:18.053Z,10688
2017-03-17T09:00:17.727Z,11308
2017-03-17T09:01:18.053Z,11812
2017-03-17T09:02:17.401Z,11548
2017-03-17T09:03:18.045Z,11772
2017-03-17T09:04:17.710Z,11780
2017-03-17T09:05:18.017Z,12296
2017-03-17T09:06:18.006Z,12804
2017-03-17T09:07:17.691Z,13176
2017-03-17T09:08:18.010Z,13512
2017-03-17T09:09:17.684Z,14296
2017-03-17T09:10:17.674Z,14324
2017-03-17T09:11:17.666Z,14236
2017-03-17T09:12:17.659Z,14636
2017-03-17T09:13:17.988Z,14752
2017-03-17T09:14:17.336Z,15048
2017-03-17T09:15:17.644Z,15588
2017-03-17T09:16:17.647Z,14276
2017-03-17T09:17:17.951Z,13968
2017-03-17T09:18:17.637Z,14208
2017-03-17T09:19:17.951Z,12772
2017-03-17T09:20:17.936Z,11372
2017-03-17T09:21:17.930Z,11096
2017-03-17T09:22:17.935Z,10700
2017-03-17T09:23:17.928Z,10644
2017-03-17T09:24:17.926Z,10940
2017-03-17T09:25:17.606Z,11436
2017-03-17T09:26:17.603Z,11844
2017-03-17T09:27:17.909Z,11696
2017-03-17T09:28:17.915Z,12512
2017-03-17T09:29:17.909Z,13336
2017-03-17T09:30:17.582Z,13768
2017-03-17T09:31:17.895Z,14100
2017-03-17T09:32:17.889Z,13892
2017-03-17T09:33:17.889Z,12940
2017-03-17T09:34:17.884Z,11408
2017-03-17T09:35:17.874Z,9544
2017-03-17T09:36:17.870Z,8772
2017-03-17T09:37:17.870Z,8084
2017-03-17T09:38:17.873Z,7896
2017-03-17T09:39:17.548Z,6736
2017-03-17T09:40:17.851Z,6332
2017-03-17T09:41:17.843Z,6996
2017-03-17T09:42:17.845Z,7600
2017-03-17T09:43:17.843Z,7872
2017-03-17T09:44:17.833Z,7016
2017-03-17T09:45:17.512Z,5692
2017-03-17T09:46:17.832Z,5552
2017-03-17T09:47:17.828Z,5260
2017-03-17T09:48:17.815Z,5332
2017-03-17T09:49:17.812Z,5408
2017-03-17T09:50:17.492Z,6012
2017-03-17T09:51:17.798Z,6472
2017-03-17T09:52:17.482Z,7528
2017-03-17T09:53:17.789Z,8752
2017-03-17T09:54:17.789Z,10000
2017-03-17T09:55:17.781Z,9972
2017-03-17T09:56:17.779Z,9816
2017-03-17T09:57:17.774Z,9488
2017-03-17T09:58:17.774Z,9660
2017-03-17T09:59:17.763Z,9356
2017-03-17T10:00:17.751Z,7896
2017-03-17T10:01:17.437Z,8112
2017-03-17T10:02:17.745Z,7280
2017-03-17T10:03:17.749Z,7708
2017-03-17T10:04:17.740Z,8016
2017-03-17T10:05:17.725Z,7984
2017-03-17T10:06:17.407Z,6024
2017-03-17T10:07:17.767Z,4128
2017-03-17T10:08:17.718Z,3416
2017-03-17T10:09:17.713Z,3360
2017-03-17T10:10:17.074Z,3924
2017-03-17T10:11:17.724Z,5056
2017-03-17T10:12:17.380Z,5228
2017-03-17T10:13:17.686Z,5044
2017-03-17T10:14:17.678Z,4856
2017-03-17T10:15:17.671Z,3984
2017-03-17T10:16:17.349Z,4268
2017-03-17T10:17:17.665Z,4552
2017-03-17T10:18:17.660Z,4748
2017-03-17T10:19:17.659Z,4912
2017-03-17T10:20:17.656Z,5052
2017-03-17T10:21:17.325Z,6144
2017-03-17T10:22:17.628Z,7260
2017-03-17T10:23:17.628Z,6992
2017-03-17T10:24:17.623Z,5756
2017-03-17T10:25:17.612Z,5020
2017-03-17T10:26:17.611Z,4820
2017-03-17T10:27:17.288Z,5080
2017-03-17T10:28:17.597Z,5060
2017-03-17T10:29:17.601Z,4800
2017-03-17T10:30:17.587Z,4224
2017-03-17T10:31:17.581Z,4304
2017-03-17T10:32:17.261Z,4568
2017-03-17T10:33:17.562Z,4292
2017-03-17T10:34:17.240Z,4496
2017-03-17T10:35:17.594Z,5540
2017-03-17T10:36:17.236Z,5904
2017-03-17T10:37:17.226Z,5480
2017-03-17T10:38:17.647Z,5732
2017-03-17T10:39:17.568Z,6396
2017-03-17T10:40:17.527Z,6104
2017-03-17T10:41:17.514Z,5100
2017-03-17T10:42:17.549Z,4992
2017-03-17T10:43:17.319Z,5132
2017-03-17T10:44:17.183Z,5156
2017-03-17T10:45:17.545Z,5176
2017-03-17T10:46:17.599Z,5036
2017-03-17T10:47:17.658Z,5412
2017-03-17T10:48:17.473Z,6340
2017-03-17T10:49:17.463Z,6580
2017-03-17T10:50:18.243Z,7656
2017-03-17T10:51:17.437Z,7756
2017-03-17T10:52:17.874Z,6920
2017-03-17T10:53:17.141Z,6356
2017-03-17T10:54:17.987Z,5916
2017-03-17T10:55:17.832Z,6644
2017-03-17T10:56:18.184Z,7044
2017-03-17T10:57:17.414Z,7756
2017-03-17T10:58:17.091Z,8372
2017-03-17T10:59:17.401Z,8748
2017-03-17T11:00:17.393Z,9240
2017-03-17T11:01:17.069Z,9876
2017-03-17T11:02:17.071Z,9908
2017-03-17T11:03:17.380Z,10556
2017-03-17T11:04:17.052Z,10756
2017-03-17T11:05:17.046Z,10788
2017-03-17T11:06:17.043Z,10720
2017-03-17T11:07:17.406Z,9904
2017-03-17T11:08:17.347Z,10352
2017-03-17T11:09:17.024Z,10168
2017-03-17T11:10:17.330Z,10112
2017-03-17T11:11:17.323Z,9148
2017-03-17T11:12:17.316Z,7872
2017-03-17T11:13:17.001Z,6740
2017-03-17T11:14:16.990Z,6696
2017-03-17T11:15:16.981Z,7324
2017-03-17T11:16:16.980Z,7924
2017-03-17T11:17:17.285Z,8508
2017-03-17T11:18:16.973Z,8440
2017-03-17T11:19:17.278Z,8148
2017-03-17T11:20:17.265Z,8940
2017-03-17T11:21:17.264Z,8756
2017-03-17T11:22:17.257Z,8424
2017-03-17T11:23:16.944Z,9600
2017-03-17T11:24:17.278Z,9304
2017-03-17T11:25:17.239Z,8916
2017-03-17T11:26:16.918Z,9384
2017-03-17T11:27:17.229Z,9344
2017-03-17T11:28:16.915Z,9084
2017-03-17T11:29:17.226Z,9364
2017-03-17T11:30:17.215Z,9192
2017-03-17T11:31:16.890Z,9080
2017-03-17T11:32:17.203Z,8832
2017-03-17T11:33:17.203Z,8600
2017-03-17T11:34:17.190Z,8912
2017-03-17T11:35:17.212Z,9160
2017-03-17T11:36:16.866Z,9176
2017-03-17T11:37:17.178Z,9196
2017-03-17T11:38:17.170Z,9884
2017-03-17T11:39:17.167Z,9820
2017-03-17T11:40:17.156Z,9320
2017-03-17T11:41:17.152Z,9040
2017-03-17T11:42:16.517Z,8444
2017-03-17T11:43:17.146Z,9404
2017-03-17T11:44:17.143Z,9080
2017-03-17T11:45:16.818Z,8728
2017-03-17T11:46:17.124Z,8264
2017-03-17T11:47:17.121Z,9996
2017-03-17T11:48:16.834Z,11332
2017-03-17T11:49:17.109Z,9844
2017-03-17T11:50:17.102Z,9040
2017-03-17T11:51:17.138Z,11188
2017-03-17T11:52:17.090Z,11252
2017-03-17T11:53:17.088Z,7888
2017-03-17T11:54:16.772Z,6004
2017-03-17T11:55:17.079Z,5432
2017-03-17T11:56:17.072Z,5556
2017-03-17T11:57:17.063Z,4864
2017-03-17T11:58:17.056Z,3380
2017-03-17T11:59:17.064Z,2616
2017-03-17T12:00:17.055Z,2364
2017-03-17T12:01:16.728Z,2396
2017-03-17T12:02:17.047Z,2364
2017-03-17T12:03:17.039Z,2236
2017-03-17T12:04:16.721Z,2000
2017-03-17T12:05:17.023Z,1912
2017-03-17T12:06:17.017Z,1756
2017-03-17T12:07:16.381Z,1908
2017-03-17T12:08:17.021Z,2996
2017-03-17T12:09:17.010Z,4412
2017-03-17T12:10:16.677Z,4088
2017-03-17T12:11:16.984Z,2984
2017-03-17T12:12:16.981Z,3100
2017-03-17T12:13:16.978Z,5060
2017-03-17T12:14:16.974Z,7172
2017-03-17T12:15:16.644Z,7752
2017-03-17T12:16:16.639Z,7152
2017-03-17T12:17:16.631Z,5584
2017-03-17T12:18:16.627Z,4808
2017-03-17T12:19:16.618Z,4488
2017-03-17T12:20:16.616Z,4308
2017-03-17T12:21:16.922Z,4696
2017-03-17T12:22:16.597Z,4492
2017-03-17T12:23:16.594Z,3968
2017-03-17T12:24:16.900Z,3348
2017-03-17T12:25:16.264Z,2912
2017-03-17T12:26:16.573Z,3684
2017-03-17T12:27:16.565Z,5200
2017-03-17T12:28:16.554Z,5756
2017-03-17T12:29:16.870Z,5096
2017-03-17T12:30:16.863Z,4888
2017-03-17T12:31:16.534Z,5812
2017-03-17T12:32:16.531Z,6208
2017-03-17T12:33:16.529Z,6456
2017-03-17T12:34:16.530Z,7096
2017-03-17T12:35:16.508Z,7176
2017-03-17T12:36:16.817Z,7452
2017-03-17T12:37:16.813Z,7096
2017-03-17T12:38:16.807Z,6184
2017-03-17T12:39:16.799Z,5544
2017-03-17T12:40:16.788Z,5692
2017-03-17T12:41:16.466Z,6836
2017-03-17T12:42:16.458Z,7468
2017-03-17T12:43:16.454Z,8224
2017-03-17T12:44:16.764Z,7820
2017-03-17T12:45:16.755Z,6984
2017-03-17T12:46:16.744Z,7036
2017-03-17T12:47:16.742Z,7128
2017-03-17T12:48:16.414Z,7656
2017-03-17T12:49:16.723Z,9160
2017-03-17T12:50:16.716Z,9416
2017-03-17T12:51:16.392Z,8272
2017-03-17T12:52:16.708Z,6232
2017-03-17T12:53:16.700Z,5564
2017-03-17T12:54:16.689Z,5160
2017-03-17T12:55:16.689Z,5420
2017-03-17T12:56:16.705Z,4604
2017-03-17T12:57:16.666Z,3184
2017-03-17T12:58:16.670Z,2860
2017-03-17T12:59:16.658Z,3060
2017-03-17T13:00:16.653Z,3148
2017-03-17T13:01:16.642Z,2760
2017-03-17T13:02:16.635Z,1984
2017-03-17T13:03:16.627Z,1364
2017-03-17T13:04:16.623Z,1088
2017-03-17T13:05:16.306Z,1168
2017-03-17T13:06:16.608Z,1444
2017-03-17T13:07:16.290Z,1872
2017-03-17T13:08:16.600Z,2192
2017-03-17T13:09:16.601Z,2112
2017-03-17T13:10:16.582Z,2116
2017-03-17T13:11:16.573Z,1880
2017-03-17T13:12:16.557Z,1776
2017-03-17T13:13:16.245Z,1944
2017-03-17T13:14:16.552Z,2920
2017-03-17T13:15:16.539Z,3884
2017-03-17T13:16:16.218Z,3940
2017-03-17T13:17:16.525Z,3244
2017-03-17T13:18:16.522Z,2344
2017-03-17T13:19:16.515Z,1664
2017-03-17T13:20:16.188Z,1436
2017-03-17T13:21:16.497Z,1620
2017-03-17T13:22:16.488Z,2588
2017-03-17T13:23:16.481Z,3436
2017-03-17T13:24:16.477Z,2864
2017-03-17T13:25:16.470Z,1836
2017-03-17T13:26:16.459Z,1656
2017-03-17T13:27:16.452Z,1968
2017-03-17T13:28:16.446Z,2312
2017-03-17T13:29:16.440Z,3096
2017-03-17T13:30:16.429Z,4600
2017-03-17T13:31:16.437Z,5800
2017-03-17T13:32:16.095Z,7328
2017-03-17T13:33:16.415Z,9100
2017-03-17T13:34:16.393Z,9900
2017-03-17T13:35:16.389Z,10604
2017-03-17T13:36:16.382Z,10940
2017-03-17T13:37:16.377Z,11356
2017-03-17T13:38:16.051Z,10064
2017-03-17T13:39:16.366Z,7996
2017-03-17T13:40:16.345Z,6608
2017-03-17T13:41:16.030Z,6148
2017-03-17T13:42:16.339Z,6156
2017-03-17T13:43:16.333Z,5936
2017-03-17T13:44:16.008Z,5200
2017-03-17T13:45:16.316Z,4860
2017-03-17T13:46:16.304Z,4204
2017-03-17T13:47:15.992Z,3660